Time;durP1;ratioP1;P1;durP2;ratioP2;P2;SDS_P1;SDS_P2;PMS_P1;PMS_P2;Temp;Humidity;BMP_temperature;BMP_pressure;BME280_temperature;BME280_humidity;BME280_pressure;Samples;Min_cycle;Max_cycle;Signal;HPM_P1;HPM_P2
2020/12/09 00:00:07;;;;;;;36.87;19.40;;;-0.10;83.80;;;;;;5003254;28;20270;-83
2020/12/09 00:02:54;;;;;;;37.60;19.47;;;-0.20;83.80;;;;;;5006682;28;20358;-82
2020/12/09 00:05:22;;;;;;;40.40;20.40;;;-0.20;84.00;;;;;;5011776;28;20230;-85
2020/12/09 00:07:51;;;;;;;31.93;18.97;;;-0.20;83.70;;;;;;5012973;28;20219;-84
2020/12/09 00:10:19;;;;;;;34.80;19.00;;;-0.20;83.90;;;;;;5025120;28;20521;-82
2020/12/09 00:12:50;;;;;;;33.67;18.90;;;-0.20;84.00;;;;;;5020978;28;20187;-84
2020/12/09 00:15:19;;;;;;;34.23;18.17;;;-0.30;83.90;;;;;;5023003;28;20205;-81
2020/12/09 00:17:47;;;;;;;34.53;19.93;;;-0.30;84.00;;;;;;5016554;28;20290;-81
2020/12/09 00:20:16;;;;;;;28.53;14.67;;;-0.30;84.00;;;;;;5016631;28;20758;-83
2020/12/09 00:22:46;;;;;;;33.80;17.57;;;-0.30;83.90;;;;;;5020230;28;20201;-81
2020/12/09 00:25:15;;;;;;;39.37;20.43;;;-0.40;83.90;;;;;;5010633;28;20287;-82
2020/12/09 00:27:42;;;;;;;31.83;18.10;;;-0.30;84.00;;;;;;5007118;28;20208;-82
2020/12/09 00:30:15;;;;;;;30.03;15.00;;;-0.30;84.00;;;;;;5008231;28;20234;-82
2020/12/09 00:32:42;;;;;;;40.93;20.37;;;-0.30;84.00;;;;;;5001825;28;20568;-81
2020/12/09 00:35:10;;;;;;;37.50;19.90;;;-0.40;84.10;;;;;;5004420;28;20225;-82
2020/12/09 00:37:38;;;;;;;32.77;16.97;;;-0.40;84.10;;;;;;5007353;28;20303;-82
2020/12/09 00:40:07;;;;;;;41.50;19.93;;;-0.30;83.90;;;;;;5005462;28;20488;-82
2020/12/09 00:42:37;;;;;;;39.37;18.57;;;-0.30;83.90;;;;;;5014978;28;20196;-83
2020/12/09 00:45:07;;;;;;;33.07;17.40;;;-0.30;83.80;;;;;;5030682;28;20247;-81
2020/12/09 00:47:40;;;;;;;38.70;18.80;;;-0.40;83.90;;;;;;5034414;28;20202;-81
2020/12/09 00:52:54;;;;;;;36.90;18.77;;;-0.40;83.90;;;;;;5013926;28;20288;-81
2020/12/09 00:55:33;;;;;;;34.97;19.13;;;-0.40;83.90;;;;;;5023737;28;20207;-84
2020/12/09 00:58:01;;;;;;;34.37;16.93;;;-0.40;84.00;;;;;;5022856;28;20219;-83
2020/12/09 01:00:29;;;;;;;34.53;17.50;;;-0.40;83.90;;;;;;5025707;28;20383;-81
2020/12/09 01:03:04;;;;;;;37.30;18.80;;;-0.40;83.80;;;;;;5012406;28;20216;-83
2020/12/09 01:05:34;;;;;;;35.87;19.17;;;-0.40;83.80;;;;;;5007675;28;20680;-83
2020/12/09 01:08:02;;;;;;;37.73;19.20;;;-0.40;83.80;;;;;;5010717;28;20192;-83
2020/12/09 01:10:30;;;;;;;34.03;19.60;;;-0.40;83.80;;;;;;5006692;28;20196;-80
2020/12/09 01:12:59;;;;;;;30.93;17.83;;;-0.40;84.00;;;;;;5006287;28;20207;-84
2020/12/09 01:15:27;;;;;;;31.57;15.60;;;-0.40;84.00;;;;;;5008006;28;20645;-81
2020/12/09 01:17:56;;;;;;;28.67;16.30;;;-0.40;83.90;;;;;;5013764;28;20303;-82
2020/12/09 01:20:25;;;;;;;38.80;20.40;;;-0.40;84.00;;;;;;5003926;28;20200;-81
2020/12/09 01:22:53;;;;;;;36.60;19.60;;;-0.40;83.90;;;;;;5004949;28;20208;-81
2020/12/09 01:25:20;;;;;;;20.87;10.93;;;-0.40;83.70;;;;;;5005698;28;20223;-84
2020/12/09 01:27:55;;;;;;;36.83;20.57;;;-0.50;83.70;;;;;;5004825;28;20649;-83
2020/12/09 01:30:22;;;;;;;39.77;19.80;;;-0.50;83.80;;;;;;5005414;28;20235;-82
2020/12/09 01:32:50;;;;;;;29.60;16.80;;;-0.50;83.70;;;;;;5008844;28;20207;-82
2020/12/09 01:35:18;;;;;;;24.17;13.00;;;-0.50;83.80;;;;;;5007893;28;20606;-82
2020/12/09 01:37:48;;;;;;;37.20;18.73;;;-0.50;83.70;;;;;;5012585;28;20566;-82
2020/12/09 01:40:18;;;;;;;36.43;19.00;;;-0.50;83.70;;;;;;5014441;28;20219;-82
2020/12/09 01:42:49;;;;;;;35.23;19.33;;;-0.50;83.70;;;;;;5025795;28;20211;-82
2020/12/09 01:45:19;;;;;;;31.73;16.40;;;-0.60;83.70;;;;;;5017451;28;20203;-81
2020/12/09 01:47:47;;;;;;;35.70;18.43;;;-0.60;83.60;;;;;;5013241;28;20219;-83
2020/12/09 01:50:15;;;;;;;33.73;17.93;;;-0.60;83.80;;;;;;5025317;28;20266;-84
2020/12/09 01:52:43;;;;;;;33.37;17.07;;;-0.60;83.90;;;;;;5010766;28;20284;-84
2020/12/09 01:55:12;;;;;;;26.40;14.00;;;-0.50;83.90;;;;;;5017653;28;20203;-81
2020/12/09 01:57:40;;;;;;;33.27;17.77;;;-0.60;83.60;;;;;;5011353;28;20398;-81
2020/12/09 02:00:08;;;;;;;31.87;17.57;;;-0.50;83.70;;;;;;5014743;28;20196;-82
2020/12/09 02:02:36;;;;;;;35.03;17.63;;;-0.70;83.60;;;;;;5006279;28;20482;-82
2020/12/09 02:05:04;;;;;;;29.50;14.97;;;-0.60;83.80;;;;;;5011545;28;20674;-81
2020/12/09 02:07:32;;;;;;;33.53;17.70;;;-0.60;83.80;;;;;;5017294;28;20286;-81
2020/12/09 02:10:00;;;;;;;28.77;17.13;;;-0.70;83.80;;;;;;5026602;28;20192;-82
2020/12/09 02:12:32;;;;;;;31.37;17.20;;;-0.70;83.60;;;;;;5012639;28;20179;-81
2020/12/09 02:15:01;;;;;;;37.63;18.97;;;-0.70;83.60;;;;;;5016757;28;20204;-82
2020/12/09 02:17:29;;;;;;;33.23;16.50;;;-0.70;83.70;;;;;;5014202;28;20614;-81
2020/12/09 02:20:00;;;;;;;28.43;15.03;;;-0.70;83.60;;;;;;5023530;28;20221;-85
2020/12/09 02:22:29;;;;;;;29.47;16.70;;;-0.70;83.60;;;;;;5024147;28;20322;-83
2020/12/09 02:24:58;;;;;;;29.33;15.40;;;-0.70;83.60;;;;;;5018908;28;20284;-83
2020/12/09 02:27:25;;;;;;;33.53;18.63;;;-0.70;83.50;;;;;;5018413;28;20254;-82
2020/12/09 02:29:53;;;;;;;23.30;13.57;;;-0.50;83.60;;;;;;5013587;28;20227;-82
2020/12/09 02:32:21;;;;;;;29.33;17.40;;;-0.70;83.70;;;;;;5013912;28;20267;-81
2020/12/09 02:34:50;;;;;;;19.90;11.20;;;-0.70;83.60;;;;;;5009533;28;20593;-81
2020/12/09 02:37:19;;;;;;;35.43;18.57;;;-0.70;83.70;;;;;;5018750;28;20223;-82
2020/12/09 02:39:48;;;;;;;34.97;17.23;;;-0.70;83.50;;;;;;5017498;28;20550;-84
2020/12/09 02:42:24;;;;;;;20.87;11.77;;;-0.80;83.50;;;;;;5012016;28;20228;-81
2020/12/09 02:44:52;;;;;;;23.13;10.83;;;-0.70;83.50;;;;;;5009774;28;20203;-83
2020/12/09 02:47:19;;;;;;;32.37;17.73;;;-0.70;83.40;;;;;;5017607;28;20282;-83
2020/12/09 02:49:47;;;;;;;27.03;15.70;;;-0.70;83.40;;;;;;5012741;28;20196;-85
2020/12/09 02:52:15;;;;;;;31.63;17.30;;;-0.70;83.30;;;;;;5006292;28;20620;-82
2020/12/09 02:54:44;;;;;;;22.03;11.83;;;-0.80;83.50;;;;;;5007467;28;20362;-83
2020/12/09 02:57:12;;;;;;;25.80;15.30;;;-0.70;83.60;;;;;;5006575;28;20210;-81
2020/12/09 02:59:40;;;;;;;32.70;18.80;;;-0.70;83.30;;;;;;5024139;28;20188;-81
2020/12/09 03:02:08;;;;;;;23.07;14.30;;;-0.80;83.30;;;;;;5025114;28;20216;-81
2020/12/09 03:04:36;;;;;;;28.97;17.50;;;-0.80;83.40;;;;;;5036899;28;20179;-81
2020/12/09 03:07:04;;;;;;;28.53;14.63;;;-0.80;83.40;;;;;;5031663;28;20217;-82
2020/12/09 03:09:32;;;;;;;20.47;10.60;;;-0.80;83.50;;;;;;5012952;28;20649;-81
2020/12/09 03:12:00;;;;;;;20.53;12.47;;;-0.80;83.40;;;;;;5011784;28;20448;-83
2020/12/09 03:14:29;;;;;;;20.73;11.03;;;-0.80;83.40;;;;;;5010934;28;20207;-80
2020/12/09 03:16:57;;;;;;;25.23;16.80;;;-0.70;83.50;;;;;;5013665;28;20223;-81
2020/12/09 03:19:25;;;;;;;26.67;15.97;;;-0.90;83.50;;;;;;5020209;28;20215;-81
2020/12/09 03:21:53;;;;;;;32.07;17.20;;;-0.90;83.60;;;;;;5028331;28;20242;-85
2020/12/09 03:24:21;;;;;;;29.50;16.53;;;-0.90;83.80;;;;;;5018814;28;20203;-81
2020/12/09 03:26:49;;;;;;;24.13;13.83;;;-0.90;83.60;;;;;;5015797;28;20377;-82
2020/12/09 03:29:17;;;;;;;37.60;18.37;;;-0.90;83.60;;;;;;5021440;28;21011;-81
2020/12/09 03:31:48;;;;;;;25.63;15.93;;;-1.00;83.70;;;;;;5028041;28;20183;-80
2020/12/09 03:34:16;;;;;;;35.03;19.10;;;-1.00;83.80;;;;;;5026586;28;20191;-82
2020/12/09 03:36:45;;;;;;;32.87;17.83;;;-0.90;83.80;;;;;;5039726;28;20223;-83
2020/12/09 03:39:13;;;;;;;26.33;15.17;;;-0.90;83.90;;;;;;5025164;28;20234;-81
2020/12/09 03:41:41;;;;;;;35.80;18.97;;;-1.00;83.80;;;;;;5022804;28;20234;-82
2020/12/09 03:44:12;;;;;;;35.27;17.53;;;-0.80;83.90;;;;;;5014075;28;20196;-82
2020/12/09 03:46:40;;;;;;;19.50;10.47;;;-0.90;83.90;;;;;;5013531;28;20207;-80
2020/12/09 03:49:09;;;;;;;30.33;17.37;;;-0.90;83.90;;;;;;5010776;28;20199;-81
2020/12/09 03:51:37;;;;;;;29.80;15.80;;;-1.00;83.80;;;;;;5011436;28;20226;-82
2020/12/09 03:54:05;;;;;;;32.77;16.53;;;-1.10;83.90;;;;;;5009936;28;21217;-84
2020/12/09 03:56:32;;;;;;;23.73;13.27;;;-1.00;84.00;;;;;;5013922;28;20202;-82
2020/12/09 03:59:00;;;;;;;25.97;14.77;;;-1.00;83.90;;;;;;5015753;28;20728;-81
2020/12/09 04:01:28;;;;;;;31.27;16.37;;;-1.00;84.00;;;;;;5015953;28;20216;-82
2020/12/09 04:03:56;;;;;;;28.63;14.53;;;-1.10;84.10;;;;;;5013618;28;20736;-83
2020/12/09 04:06:27;;;;;;;27.33;16.17;;;-1.00;84.20;;;;;;5014594;28;20265;-80
2020/12/09 04:08:55;;;;;;;35.80;19.40;;;-1.10;84.20;;;;;;5017305;28;20336;-82
2020/12/09 04:11:23;;;;;;;31.67;17.47;;;-1.10;84.30;;;;;;5017109;28;20204;-82
2020/12/09 04:13:51;;;;;;;29.17;15.67;;;-1.10;84.40;;;;;;5018942;28;20227;-82
2020/12/09 04:16:19;;;;;;;24.03;13.17;;;-1.10;84.20;;;;;;5016819;28;20199;-82
2020/12/09 04:18:47;;;;;;;37.00;18.57;;;-1.00;84.30;;;;;;5022549;28;20298;-81
2020/12/09 04:21:15;;;;;;;26.57;13.17;;;-1.00;84.30;;;;;;5020268;28;20204;-82
2020/12/09 04:23:45;;;;;;;33.90;17.57;;;-1.00;84.30;;;;;;5026204;28;20255;-82
2020/12/09 04:26:13;;;;;;;33.87;17.10;;;-1.10;84.30;;;;;;5027117;28;20183;-82
2020/12/09 04:28:41;;;;;;;26.63;13.87;;;-1.10;84.40;;;;;;5028007;28;20223;-82
2020/12/09 04:31:08;;;;;;;25.37;14.67;;;-1.10;84.40;;;;;;5017614;28;20390;-81
2020/12/09 04:33:38;;;;;;;33.27;16.93;;;-1.10;84.40;;;;;;5022975;28;20368;-83
2020/12/09 04:36:07;;;;;;;29.57;17.57;;;-1.10;84.40;;;;;;5026303;28;20221;-83
2020/12/09 04:38:39;;;;;;;27.70;15.10;;;-1.10;84.40;;;;;;5067673;23;20179;-81
2020/12/09 04:41:08;;;;;;;24.17;12.97;;;-1.10;84.50;;;;;;4995897;28;20218;-83
2020/12/09 04:43:36;;;;;;;21.67;13.40;;;-1.10;84.50;;;;;;5018224;28;20190;-82
2020/12/09 04:46:04;;;;;;;23.60;13.57;;;-1.10;84.70;;;;;;5025533;28;20167;-82
2020/12/09 04:48:39;;;;;;;22.57;14.10;;;-1.10;84.50;;;;;;4991805;28;20758;-81
2020/12/09 04:51:40;;;;;;;33.00;17.53;;;-1.10;84.60;;;;;;5016078;28;20203;-83
2020/12/09 04:54:14;;;;;;;34.47;17.57;;;-1.20;84.60;;;;;;5012691;28;20235;-84
2020/12/09 04:56:53;;;;;;;32.20;16.20;;;-1.10;84.60;;;;;;5013628;28;20393;-80
2020/12/09 04:59:25;;;;;;;29.67;17.03;;;-1.20;84.60;;;;;;5015930;28;20180;-83
2020/12/09 05:02:03;;;;;;;22.03;12.83;;;-1.10;84.70;;;;;;5026949;28;20287;-83
2020/12/09 05:04:32;;;;;;;25.60;13.17;;;-1.20;84.60;;;;;;5015156;28;20229;-83
2020/12/09 05:07:05;;;;;;;20.03;11.00;;;-1.10;84.80;;;;;;5029913;28;20200;-81
2020/12/09 05:09:41;;;;;;;27.33;16.60;;;-1.20;84.80;;;;;;5017332;28;20195;-82
2020/12/09 05:12:12;;;;;;;19.90;12.53;;;-1.20;84.90;;;;;;5024818;28;20187;-85
2020/12/09 05:14:47;;;;;;;24.40;13.30;;;-1.30;84.90;;;;;;5009653;28;20592;-81
2020/12/09 05:17:17;;;;;;;30.23;14.57;;;-1.30;85.00;;;;;;5010602;28;20215;-81
2020/12/09 05:19:49;;;;;;;22.67;15.00;;;-1.30;85.00;;;;;;4989266;28;20411;-82
2020/12/09 05:22:20;;;;;;;28.00;15.67;;;-1.30;84.90;;;;;;5010414;28;20226;-83
2020/12/09 05:24:49;;;;;;;28.80;16.43;;;-1.30;85.00;;;;;;4992389;28;20211;-82
2020/12/09 05:27:18;;;;;;;27.80;16.53;;;-1.30;85.10;;;;;;5009757;28;20203;-84
2020/12/09 05:29:48;;;;;;;24.33;10.07;;;-1.30;85.10;;;;;;5014887;28;20285;-83
2020/12/09 05:32:18;;;;;;;25.07;13.17;;;-1.40;85.20;;;;;;5013695;28;20196;-84
2020/12/09 05:34:46;;;;;;;21.40;12.17;;;-1.40;85.20;;;;;;5017461;28;20203;-82
2020/12/09 05:37:16;;;;;;;28.07;13.43;;;-1.40;85.30;;;;;;5001225;28;20207;-82
2020/12/09 05:39:53;;;;;;;26.60;15.20;;;-1.30;85.30;;;;;;5017473;28;20422;-82
2020/12/09 05:42:26;;;;;;;30.73;17.53;;;-1.30;85.30;;;;;;5015122;28;20225;-81
2020/12/09 05:48:11;;;;;;;24.77;14.63;;;-1.30;85.40;;;;;;5020497;28;20671;-80
2020/12/09 05:50:55;;;;;;;29.33;15.30;;;-1.30;85.40;;;;;;4982869;28;20230;-84
2020/12/09 05:53:25;;;;;;;24.30;14.10;;;-1.30;85.40;;;;;;5016142;28;20233;-83
2020/12/09 05:56:10;;;;;;;32.97;16.90;;;-1.30;85.50;;;;;;5022821;28;20285;-82
2020/12/09 05:58:41;;;;;;;16.17;10.17;;;-1.40;85.40;;;;;;5003585;28;20195;-84
2020/12/09 06:01:11;;;;;;;26.70;15.63;;;-1.30;85.50;;;;;;4997329;28;20212;-83
2020/12/09 06:03:40;;;;;;;32.03;17.07;;;-1.40;85.60;;;;;;5006270;28;20206;-83
2020/12/09 06:06:16;;;;;;;30.63;17.50;;;-1.40;85.60;;;;;;5007218;28;20322;-82
2020/12/09 06:08:49;;;;;;;22.97;11.60;;;-1.30;85.70;;;;;;4999388;28;20796;-82
2020/12/09 06:11:19;;;;;;;29.43;15.37;;;-1.30;85.70;;;;;;4971160;28;20702;-85
2020/12/09 06:13:48;;;;;;;28.97;16.00;;;-1.30;85.80;;;;;;5003064;28;20208;-83
2020/12/09 06:16:18;;;;;;;30.73;15.90;;;-1.30;85.70;;;;;;4976144;28;20231;-82
2020/12/09 06:18:48;;;;;;;22.53;12.53;;;-1.30;85.70;;;;;;4998978;28;20202;-83
2020/12/09 06:21:17;;;;;;;28.37;16.37;;;-1.20;85.90;;;;;;4984606;28;20214;-83
2020/12/09 06:23:47;;;;;;;30.60;15.70;;;-1.20;85.80;;;;;;5001887;28;20308;-82
2020/12/09 06:26:16;;;;;;;23.47;12.90;;;-1.30;85.80;;;;;;5022124;28;20223;-84
2020/12/09 06:28:46;;;;;;;28.53;15.40;;;-1.20;86.00;;;;;;5022752;28;20206;-82
2020/12/09 06:31:16;;;;;;;23.53;13.77;;;-1.30;85.90;;;;;;5025877;28;20199;-81
2020/12/09 06:33:45;;;;;;;34.73;16.77;;;-1.20;86.00;;;;;;5011048;28;20211;-83
2020/12/09 06:36:20;;;;;;;35.67;18.67;;;-1.20;86.00;;;;;;5007163;28;20199;-83
2020/12/09 06:39:29;;;;;;;23.47;11.87;;;-1.20;85.80;;;;;;5012255;28;20213;-84
2020/12/09 06:42:11;;;;;;;18.23;9.43;;;-1.20;85.90;;;;;;4927370;29;20239;-82
2020/12/09 06:44:51;;;;;;;21.50;12.77;;;-1.20;85.90;;;;;;4922445;29;20201;-81
2020/12/09 06:47:20;;;;;;;33.43;18.83;;;-1.20;85.80;;;;;;4916645;29;20222;-80
2020/12/09 06:49:48;;;;;;;34.50;19.50;;;-1.20;85.80;;;;;;4924394;29;20804;-80
2020/12/09 06:52:38;;;;;;;34.67;18.70;;;-1.20;85.90;;;;;;4923367;29;20253;-84
2020/12/09 06:55:20;;;;;;;34.87;19.00;;;-1.20;86.00;;;;;;4913013;29;20728;-81
2020/12/09 06:57:48;;;;;;;32.73;18.07;;;-1.20;86.00;;;;;;4921125;29;20700;-83
2020/12/09 07:00:23;;;;;;;39.97;19.10;;;-1.20;86.10;;;;;;4927983;29;20213;-83
2020/12/09 07:02:57;;;;;;;35.70;19.00;;;-1.20;85.90;;;;;;4935103;29;20838;-83
2020/12/09 07:05:32;;;;;;;39.90;19.90;;;-1.20;85.90;;;;;;4897712;29;20302;-83
2020/12/09 07:08:01;;;;;;;40.73;18.80;;;-1.20;85.90;;;;;;4927968;28;20210;-83
2020/12/09 07:10:31;;;;;;;34.17;16.87;;;-1.20;85.80;;;;;;4936754;28;20744;-81
2020/12/09 07:13:13;;;;;;;32.17;18.33;;;-1.20;85.80;;;;;;4915802;28;20218;-81
2020/12/09 07:15:45;;;;;;;32.53;17.23;;;-1.20;86.00;;;;;;4916456;28;20644;-82
2020/12/09 07:18:14;;;;;;;34.97;16.43;;;-1.20;85.90;;;;;;4959468;28;20413;-81
2020/12/09 07:20:43;;;;;;;32.67;17.47;;;-1.20;85.90;;;;;;5000795;28;20208;-82
2020/12/09 07:23:14;;;;;;;31.70;18.60;;;-1.20;85.90;;;;;;4987264;28;20228;-84
2020/12/09 07:25:42;;;;;;;35.67;19.27;;;-1.20;86.00;;;;;;4987911;28;20823;-83
2020/12/09 07:28:10;;;;;;;40.33;21.00;;;-1.20;86.00;;;;;;4993958;28;21323;-82
2020/12/09 07:30:39;;;;;;;36.37;19.30;;;-1.20;86.10;;;;;;4982187;28;20202;-81
2020/12/09 07:33:07;;;;;;;31.27;16.33;;;-1.20;86.20;;;;;;4993099;28;20724;-82
2020/12/09 07:35:37;;;;;;;33.30;18.80;;;-1.10;86.00;;;;;;4977707;28;20227;-83
2020/12/09 07:38:06;;;;;;;33.40;15.30;;;-1.10;86.00;;;;;;4975749;28;20215;-80
2020/12/09 07:40:35;;;;;;;38.30;20.17;;;-1.10;85.90;;;;;;4993826;28;20398;-81
2020/12/09 07:43:06;;;;;;;28.00;15.47;;;-1.00;86.10;;;;;;4991102;28;20227;-83
2020/12/09 07:45:35;;;;;;;32.90;16.40;;;-1.10;85.90;;;;;;4980328;28;20215;-83
2020/12/09 07:48:05;;;;;;;26.73;15.87;;;-1.10;85.90;;;;;;4970928;28;20218;-83
2020/12/09 07:50:33;;;;;;;26.10;13.23;;;-1.10;85.90;;;;;;5001596;28;20210;-82
2020/12/09 07:53:02;;;;;;;33.23;17.27;;;-1.10;85.90;;;;;;5006596;28;20196;-84
2020/12/09 07:55:34;;;;;;;36.70;18.20;;;-1.20;85.80;;;;;;5009400;28;20529;-81
2020/12/09 07:58:07;;;;;;;29.57;16.83;;;-1.20;86.00;;;;;;5006241;28;20209;-81
2020/12/09 08:00:42;;;;;;;17.23;9.80;;;-1.10;85.90;;;;;;4987680;28;20293;-79
2020/12/09 08:03:17;;;;;;;38.83;19.27;;;-1.20;86.00;;;;;;4965055;28;20242;-81
2020/12/09 08:05:49;;;;;;;36.03;19.50;;;-1.10;86.10;;;;;;4991266;28;20426;-81
2020/12/09 08:08:22;;;;;;;24.07;11.97;;;-1.10;86.00;;;;;;4994567;28;20528;-81
2020/12/09 08:10:54;;;;;;;34.03;18.10;;;-1.00;85.90;;;;;;4984012;28;20241;-82
2020/12/09 08:13:24;;;;;;;33.80;18.77;;;-1.10;85.70;;;;;;4991871;28;20199;-81
2020/12/09 08:16:00;;;;;;;37.93;19.60;;;-1.10;85.80;;;;;;4987570;28;20214;-82
2020/12/09 08:18:28;;;;;;;32.30;17.57;;;-1.10;86.00;;;;;;4991796;28;20477;-80
2020/12/09 08:20:59;;;;;;;27.43;14.27;;;-1.00;85.80;;;;;;4986310;28;20524;-81
2020/12/09 08:23:39;;;;;;;32.23;16.97;;;-1.00;85.70;;;;;;4999263;28;20223;-83
2020/12/09 08:26:10;;;;;;;37.23;18.47;;;-1.00;85.50;;;;;;5008560;28;20426;-79
2020/12/09 08:28:47;;;;;;;35.57;19.27;;;-1.00;85.60;;;;;;5007419;28;20223;-84
2020/12/09 08:31:22;;;;;;;39.80;19.27;;;-1.00;85.60;;;;;;4981457;28;20210;-80
2020/12/09 08:33:51;;;;;;;33.90;17.47;;;-1.00;85.60;;;;;;4996193;28;20423;-81
2020/12/09 08:36:20;;;;;;;35.13;18.17;;;-1.00;85.50;;;;;;5003276;28;20208;-82
2020/12/09 08:38:52;;;;;;;31.90;17.53;;;-1.00;85.60;;;;;;5001248;28;20212;-83
2020/12/09 08:41:28;;;;;;;40.37;19.47;;;-0.90;85.50;;;;;;4981678;28;20281;-79
2020/12/09 08:44:00;;;;;;;34.70;17.93;;;-1.00;85.50;;;;;;4996082;28;20306;-83
2020/12/09 08:46:30;;;;;;;21.60;12.37;;;-0.90;85.50;;;;;;4986249;28;20207;-84
2020/12/09 08:49:01;;;;;;;33.57;17.27;;;-0.90;85.30;;;;;;4992137;28;20845;-80
2020/12/09 08:51:31;;;;;;;36.97;19.07;;;-0.90;85.30;;;;;;4990213;28;20515;-80
2020/12/09 08:54:02;;;;;;;35.80;19.53;;;-0.90;85.50;;;;;;4982348;28;20307;-81
2020/12/09 08:56:31;;;;;;;24.47;12.80;;;-0.90;85.30;;;;;;4994546;28;20460;-81
2020/12/09 08:59:05;;;;;;;28.70;15.80;;;-0.80;85.20;;;;;;4995986;28;20210;-80
2020/12/09 09:01:41;;;;;;;35.53;17.97;;;-0.90;85.10;;;;;;4993224;28;20204;-83
2020/12/09 09:04:11;;;;;;;23.73;13.43;;;-0.90;84.90;;;;;;4994547;28;20223;-83
2020/12/09 09:06:40;;;;;;;19.17;11.97;;;-1.00;85.00;;;;;;4992668;28;20208;-82
2020/12/09 09:09:09;;;;;;;24.00;13.40;;;-1.00;85.10;;;;;;4983322;28;20245;-82
2020/12/09 09:11:36;;;;;;;38.30;22.70;;;-1.00;85.20;;;;;;4981077;28;20211;-82
2020/12/09 09:14:05;;;;;;;25.37;15.37;;;-1.00;85.00;;;;;;4977149;28;20257;-83
2020/12/09 09:16:37;;;;;;;26.07;16.50;;;-1.00;85.10;;;;;;4992624;28;20204;-84
2020/12/09 09:19:05;;;;;;;38.63;19.57;;;-0.90;85.00;;;;;;5006788;28;20191;-82
2020/12/09 09:21:33;;;;;;;26.90;12.73;;;-0.90;85.10;;;;;;5015954;28;20205;-85
2020/12/09 09:24:01;;;;;;;31.93;17.80;;;-0.90;85.00;;;;;;5011106;28;20210;-83
2020/12/09 09:26:33;;;;;;;32.37;16.70;;;-0.90;85.20;;;;;;5003920;28;20616;-83
2020/12/09 09:29:01;;;;;;;22.00;14.33;;;-0.90;85.00;;;;;;4991798;28;20195;-84
2020/12/09 09:31:29;;;;;;;30.87;15.20;;;-0.80;85.00;;;;;;4992042;28;20197;-84
2020/12/09 09:33:57;;;;;;;27.43;15.00;;;-1.00;85.00;;;;;;5004166;28;20361;-83
2020/12/09 09:36:29;;;;;;;30.83;16.60;;;-0.90;85.00;;;;;;5003613;28;20203;-82
2020/12/09 09:38:56;;;;;;;31.27;17.40;;;-0.90;85.00;;;;;;5017876;28;20188;-80
2020/12/09 09:41:25;;;;;;;29.63;15.67;;;-0.80;85.00;;;;;;5017378;28;20219;-83
2020/12/09 09:43:53;;;;;;;24.87;13.47;;;-0.80;85.00;;;;;;5009785;28;20230;-81
2020/12/09 09:46:22;;;;;;;31.77;15.77;;;-0.70;84.90;;;;;;5007752;28;20661;-85
2020/12/09 09:48:51;;;;;;;28.60;14.90;;;-0.70;84.90;;;;;;5004258;28;20193;-84
2020/12/09 09:51:22;;;;;;;24.17;12.70;;;-0.70;84.90;;;;;;5009294;28;20207;-79
2020/12/09 09:53:53;;;;;;;31.60;18.27;;;-0.70;84.80;;;;;;5015157;28;20318;-84
2020/12/09 09:56:22;;;;;;;28.30;16.47;;;-0.70;84.90;;;;;;5009861;28;20497;-82
2020/12/09 09:58:50;;;;;;;29.23;16.17;;;-0.70;84.80;;;;;;5014832;28;20433;-81
2020/12/09 10:01:19;;;;;;;31.37;17.47;;;-0.70;85.00;;;;;;5006992;28;20585;-81
2020/12/09 10:03:49;;;;;;;27.43;14.17;;;-0.60;84.90;;;;;;5005090;28;20248;-84
2020/12/09 10:06:18;;;;;;;32.53;16.10;;;-0.60;84.80;;;;;;4996697;28;20235;-81
2020/12/09 10:08:47;;;;;;;28.43;15.63;;;-0.80;84.80;;;;;;4995164;28;20204;-82
2020/12/09 10:11:15;;;;;;;27.83;14.37;;;-0.70;84.80;;;;;;4991586;28;20512;-82
2020/12/09 10:13:43;;;;;;;28.70;14.47;;;-0.60;84.70;;;;;;4990996;28;20670;-84
2020/12/09 10:16:12;;;;;;;32.67;17.37;;;-0.60;84.70;;;;;;4991438;28;20231;-82
2020/12/09 10:18:41;;;;;;;29.93;16.70;;;-0.70;84.70;;;;;;4994821;28;20208;-81
2020/12/09 10:21:09;;;;;;;34.23;18.67;;;-0.60;84.70;;;;;;4995495;28;20571;-80
2020/12/09 10:23:39;;;;;;;33.57;17.73;;;-0.60;84.70;;;;;;4995902;28;20349;-81
2020/12/09 10:26:07;;;;;;;30.60;17.37;;;-0.60;84.60;;;;;;4994894;28;20221;-81
2020/12/09 10:28:36;;;;;;;30.93;15.20;;;-0.50;84.70;;;;;;4990877;28;21119;-83
2020/12/09 10:31:13;;;;;;;20.67;12.23;;;-0.50;84.50;;;;;;4971703;28;20227;-84
2020/12/09 10:33:43;;;;;;;29.27;15.83;;;-0.50;84.50;;;;;;4992394;28;20203;-82
2020/12/09 10:36:11;;;;;;;27.67;14.23;;;-0.50;84.50;;;;;;4987873;28;20291;-84
2020/12/09 10:38:42;;;;;;;30.27;16.03;;;-0.50;84.40;;;;;;4993315;28;20208;-82
2020/12/09 10:41:10;;;;;;;37.27;18.70;;;-0.50;84.50;;;;;;4991036;28;20211;-82
2020/12/09 10:43:47;;;;;;;34.10;15.90;;;-0.40;84.50;;;;;;4970131;28;20321;-83
2020/12/09 10:46:17;;;;;;;32.13;17.90;;;-0.40;84.30;;;;;;4987816;28;20391;-83
2020/12/09 10:48:46;;;;;;;31.07;17.17;;;-0.40;84.20;;;;;;5003027;28;20283;-85
2020/12/09 10:51:17;;;;;;;33.90;17.50;;;-0.50;84.00;;;;;;4991906;28;20876;-83
2020/12/09 10:53:46;;;;;;;39.27;19.30;;;-0.40;84.20;;;;;;4974062;28;20199;-82
2020/12/09 10:56:16;;;;;;;26.60;15.20;;;-0.40;84.10;;;;;;4988527;28;20210;-83
2020/12/09 10:58:44;;;;;;;32.43;17.53;;;-0.40;84.00;;;;;;4992673;28;20589;-82
2020/12/09 11:01:13;;;;;;;32.43;16.70;;;-0.40;83.90;;;;;;4995110;28;20211;-80
2020/12/09 11:03:41;;;;;;;23.37;11.97;;;-0.50;84.40;;;;;;4966642;28;20228;-81
2020/12/09 11:06:11;;;;;;;32.37;16.20;;;-0.30;84.30;;;;;;5009071;28;20549;-83
2020/12/09 11:08:39;;;;;;;32.73;17.87;;;-0.50;84.00;;;;;;4973168;28;20487;-82
2020/12/09 11:11:06;;;;;;;34.57;18.63;;;-0.50;84.20;;;;;;5001751;28;20300;-82
2020/12/09 11:13:34;;;;;;;30.30;16.73;;;-0.50;84.40;;;;;;5012725;28;20359;-84
2020/12/09 11:16:03;;;;;;;34.40;17.93;;;-0.30;84.40;;;;;;5007672;28;20203;-81
2020/12/09 11:18:31;;;;;;;32.13;16.33;;;-0.40;84.10;;;;;;4998556;28;20204;-81
2020/12/09 11:20:59;;;;;;;31.73;16.23;;;-0.40;84.10;;;;;;5007540;28;20360;-82
2020/12/09 11:23:30;;;;;;;32.43;16.20;;;-0.40;84.30;;;;;;4975763;28;20473;-79
2020/12/09 11:25:58;;;;;;;34.40;17.63;;;-0.40;84.20;;;;;;4992338;28;20234;-83
2020/12/09 11:28:26;;;;;;;32.90;18.17;;;-0.50;84.00;;;;;;4995970;28;20492;-83
2020/12/09 11:30:56;;;;;;;37.20;19.33;;;-0.30;84.10;;;;;;5010191;28;20204;-80
2020/12/09 11:33:28;;;;;;;35.33;17.07;;;-0.30;84.10;;;;;;4993969;28;20287;-84
2020/12/09 11:35:58;;;;;;;29.03;15.97;;;-0.30;84.10;;;;;;5011604;28;20205;-82
2020/12/09 11:38:28;;;;;;;36.53;19.07;;;-0.30;84.00;;;;;;5016588;28;20188;-80
2020/12/09 11:40:56;;;;;;;37.47;20.67;;;-0.30;84.20;;;;;;4992425;28;20221;-83
2020/12/09 11:43:25;;;;;;;30.97;17.43;;;-0.30;84.00;;;;;;5008554;28;20245;-80
2020/12/09 11:45:53;;;;;;;30.33;13.70;;;-0.20;84.20;;;;;;5015087;28;20201;-83
2020/12/09 11:48:21;;;;;;;34.53;17.70;;;-0.20;84.00;;;;;;5014012;28;20193;-83
2020/12/09 11:50:50;;;;;;;35.90;18.20;;;-0.30;84.10;;;;;;5014879;28;20224;-83
2020/12/09 11:53:19;;;;;;;35.83;19.60;;;-0.30;84.30;;;;;;5013031;28;20204;-82
2020/12/09 11:55:48;;;;;;;35.10;19.33;;;-0.20;84.30;;;;;;5004836;28;20204;-81
2020/12/09 11:58:16;;;;;;;33.83;17.80;;;-0.30;84.10;;;;;;4977086;28;20200;-83
2020/12/09 12:00:44;;;;;;;32.13;15.87;;;-0.10;84.20;;;;;;4999355;28;20274;-84
2020/12/09 12:03:13;;;;;;;31.97;16.67;;;-0.10;84.20;;;;;;4980631;28;20758;-82
2020/12/09 12:05:42;;;;;;;25.73;15.77;;;-0.10;84.20;;;;;;4998737;28;20450;-80
2020/12/09 12:08:11;;;;;;;39.07;19.40;;;-0.20;84.10;;;;;;5009836;28;20215;-82
2020/12/09 12:10:39;;;;;;;37.37;19.83;;;-0.20;84.20;;;;;;5015944;28;20212;-80
2020/12/09 12:13:08;;;;;;;35.40;18.27;;;-0.20;84.20;;;;;;5008551;28;20266;-84
2020/12/09 12:15:36;;;;;;;36.40;20.10;;;-0.20;84.20;;;;;;5014880;28;20181;-80
2020/12/09 12:18:05;;;;;;;36.57;19.27;;;-0.20;84.40;;;;;;5015417;28;20184;-84
2020/12/09 12:20:33;;;;;;;37.27;20.27;;;-0.20;84.30;;;;;;4993905;28;20406;-83
2020/12/09 12:23:02;;;;;;;36.53;20.20;;;-0.20;84.40;;;;;;5012231;28;20263;-86
2020/12/09 12:25:30;;;;;;;39.00;19.83;;;-0.20;84.50;;;;;;5012756;28;20201;-82
2020/12/09 12:27:57;;;;;;;36.80;18.10;;;-0.10;84.50;;;;;;4994984;28;21424;-81
2020/12/09 12:30:27;;;;;;;35.63;18.77;;;-0.20;84.60;;;;;;4991509;28;20521;-82
2020/12/09 12:32:54;;;;;;;36.83;19.87;;;-0.10;84.60;;;;;;5010452;28;20419;-81
2020/12/09 12:35:23;;;;;;;31.40;16.07;;;-0.10;84.60;;;;;;5012368;28;20190;-83
2020/12/09 12:37:51;;;;;;;38.83;17.87;;;-0.20;84.50;;;;;;5017092;28;20215;-84
2020/12/09 12:40:19;;;;;;;31.77;17.80;;;-0.20;84.70;;;;;;5005212;28;20213;-82
2020/12/09 12:42:48;;;;;;;27.30;15.90;;;-0.20;84.70;;;;;;4973957;28;21709;-80
2020/12/09 12:45:16;;;;;;;33.83;17.97;;;-0.20;84.80;;;;;;4987700;28;20210;-82
2020/12/09 12:47:45;;;;;;;36.97;17.93;;;-0.20;84.90;;;;;;4976674;28;20231;-82